This is the latest recevied weather packets stored in our database for station/object SQ9MHX-13. If no packets are shown the sender has not sent any weather packets the latest 10 day(s).
| Time | Temp. | Humidity | Pressure | Rain* | Wind** | Luminosity | Snow |
|---|---|---|---|---|---|---|---|
| 1777436711 | 5° C | 56% | 990.5 hPa | - | 0 m/s | - | - |
| 1777436114 | 3.89° C | 59% | 991.4 hPa | - | 0 m/s | - | - |
| 1777435816 | 2.78° C | 66% | 991.8 hPa | - | 0 m/s | - | - |
| 1777435518 | 2.78° C | 62% | 992 hPa | - | 0 m/s | - | - |
| 1777435220 | 2.22° C | 62% | 992.5 hPa | - | 0 m/s | - | - |
| 1777434922 | 2.22° C | 64% | 993.6 hPa | - | 0 m/s | - | - |
| 1777434624 | 1.11° C | 65% | 993.9 hPa | - | 0 m/s | - | - |
| 1777434327 | 1.11° C | 68% | 994.4 hPa | - | 0 m/s | - | - |
| 1777434029 | 1.11° C | 67% | 994.4 hPa | - | 0 m/s | - | - |
| 1777433731 | 1.11° C | 68% | 994.2 hPa | - | 0 m/s | - | - |
| 1777433433 | 1.11° C | 67% | 994.2 hPa | - | 0 m/s | - | - |
| 1777433135 | 1.11° C | 67% | 993.7 hPa | - | 0 m/s | - | - |
| 1777432837 | 1.11° C | 66% | 993.6 hPa | - | 0 m/s | - | - |
| 1777432539 | 1.11° C | 66% | 993.6 hPa | - | 0 m/s | - | - |
| 1777432241 | 1.11° C | 66% | 993.6 hPa | - | 0 m/s | - | - |
| 1777431943 | 1.11° C | 66% | 993.7 hPa | - | 0 m/s | - | - |
| 1777431645 | 1.11° C | 67% | 994.1 hPa | - | 0 m/s | - | - |
| 1777431347 | 0° C | 68% | 994.5 hPa | - | 0 m/s | - | - |
| 1777431049 | 0° C | 68% | 994.6 hPa | - | 0 m/s | - | - |
| 1777430751 | 0° C | 69% | 994.9 hPa | - | 0 m/s | - | - |
| 1777430453 | 0° C | 67% | 994.7 hPa | - | 0 m/s | - | - |
| 1777430155 | 0° C | 68% | 994.5 hPa | - | 0 m/s | - | - |
| 1777429857 | 1.11° C | 67% | 994.4 hPa | - | 0 m/s | - | - |
| 1777429560 | 1.11° C | 66% | 994.2 hPa | - | 0 m/s | - | - |
| 1777429262 | 1.11° C | 66% | 994.2 hPa | - | 0 m/s | - | - |
* Rain since midnight (hover to see other rain measurements)
** Current wind speed in m/s (hover to see current wind gust speed)